Time;durP1;ratioP1;P1;durP2;ratioP2;P2;SDS_P1;SDS_P2;PMS_P1;PMS_P2;Temp;Humidity;BMP_temperature;BMP_pressure;BME280_temperature;BME280_humidity;BME280_pressure;Samples;Min_cycle;Max_cycle;Signal;HPM_P1;HPM_P2
2022/03/31 00:01:57;;;;;;;29.23;6.55;;;;;;;;;;4955508;29;20565;-65
2022/03/31 00:05:01;;;;;;;33.13;6.70;;;;;;;;;;4955078;28;20537;-65
2022/03/31 00:08:07;;;;;;;36.13;6.60;;;;;;;;;;4955359;29;20042;-65
2022/03/31 00:11:14;;;;;;;28.58;6.18;;;;;;;;;;4955685;29;20062;-65
2022/03/31 00:14:19;;;;;;;23.30;5.78;;;;;;;;;;4955562;29;20039;-67
2022/03/31 00:17:23;;;;;;;26.00;6.13;;;;;;;;;;4955223;29;20058;-67
2022/03/31 00:20:46;;;;;;;33.72;6.45;;;;;;;;;;4955335;29;20062;-66
2022/03/31 00:23:50;;;;;;;37.53;6.80;;;;;;;;;;4955114;29;20173;-67
2022/03/31 00:26:55;;;;;;;28.77;6.15;;;;;;;;;;4955175;29;20478;-67
2022/03/31 00:29:59;;;;;;;29.30;6.63;;;;;;;;;;4954610;29;20048;-66
2022/03/31 00:33:03;;;;;;;37.88;7.03;;;;;;;;;;4954741;29;20047;-65
2022/03/31 00:36:10;;;;;;;29.48;6.90;;;;;;;;;;4954793;29;20046;-66
2022/03/31 00:39:31;;;;;;;32.50;7.30;;;;;;;;;;4954552;29;20066;-65
2022/03/31 00:42:43;;;;;;;46.13;8.02;;;;;;;;;;4955072;29;20042;-67
2022/03/31 00:45:48;;;;;;;43.88;7.78;;;;;;;;;;4954695;29;20051;-66
2022/03/31 00:48:52;;;;;;;46.00;7.82;;;;;;;;;;4954572;29;20042;-65
2022/03/31 00:51:56;;;;;;;33.90;6.85;;;;;;;;;;4954930;29;20054;-67
2022/03/31 00:55:01;;;;;;;35.90;7.20;;;;;;;;;;4954781;29;20042;-68
2022/03/31 00:58:06;;;;;;;33.50;7.35;;;;;;;;;;4954457;29;20058;-66
2022/03/31 01:01:11;;;;;;;38.75;7.78;;;;;;;;;;4954557;29;20042;-67
2022/03/31 01:04:15;;;;;;;38.55;8.25;;;;;;;;;;4954283;29;20449;-67
2022/03/31 01:07:20;;;;;;;38.33;7.03;;;;;;;;;;4964466;28;20046;-68
2022/03/31 01:10:24;;;;;;;34.15;7.45;;;;;;;;;;4953947;29;20042;-66
2022/03/31 01:13:28;;;;;;;45.95;9.20;;;;;;;;;;4954150;29;20050;-65
2022/03/31 01:16:32;;;;;;;72.90;13.27;;;;;;;;;;4953099;28;20398;-67
2022/03/31 01:19:37;;;;;;;98.75;14.85;;;;;;;;;;4953872;29;20046;-66
2022/03/31 01:22:42;;;;;;;123.70;18.15;;;;;;;;;;4953848;29;20513;-67
2022/03/31 01:25:46;;;;;;;115.30;17.40;;;;;;;;;;4953694;29;20046;-67
2022/03/31 01:28:51;;;;;;;105.00;17.63;;;;;;;;;;4953899;29;20513;-67
2022/03/31 01:31:57;;;;;;;113.45;17.58;;;;;;;;;;4953451;29;20065;-66
2022/03/31 01:35:03;;;;;;;113.10;17.42;;;;;;;;;;4953786;29;20533;-67
2022/03/31 01:38:07;;;;;;;114.07;16.70;;;;;;;;;;4953534;29;20131;-66
2022/03/31 01:41:11;;;;;;;117.32;18.17;;;;;;;;;;4954015;29;20038;-68
2022/03/31 01:44:16;;;;;;;107.60;17.05;;;;;;;;;;4953580;29;20058;-65
2022/03/31 01:47:21;;;;;;;123.07;18.42;;;;;;;;;;4963881;28;20112;-66
2022/03/31 01:50:25;;;;;;;118.70;16.73;;;;;;;;;;4953504;29;20054;-66
2022/03/31 01:53:30;;;;;;;112.25;18.67;;;;;;;;;;4953631;29;20034;-68
2022/03/31 01:56:41;;;;;;;110.13;15.57;;;;;;;;;;4953714;29;20050;-65
2022/03/31 01:59:45;;;;;;;112.97;16.15;;;;;;;;;;4953666;29;20066;-65
2022/03/31 02:02:50;;;;;;;78.93;14.68;;;;;;;;;;4953642;29;20051;-66
2022/03/31 02:05:55;;;;;;;79.72;12.13;;;;;;;;;;4953570;29;20393;-66
2022/03/31 02:09:00;;;;;;;61.85;10.68;;;;;;;;;;4963406;28;20050;-65
2022/03/31 02:12:04;;;;;;;73.13;11.18;;;;;;;;;;4953524;29;20610;-65
2022/03/31 02:15:12;;;;;;;62.45;12.07;;;;;;;;;;4953438;29;20050;-66
2022/03/31 02:18:16;;;;;;;90.53;14.25;;;;;;;;;;4953050;29;20066;-65
2022/03/31 02:21:24;;;;;;;81.22;12.75;;;;;;;;;;4953069;29;20042;-66
2022/03/31 02:24:29;;;;;;;88.70;14.02;;;;;;;;;;4953386;29;20054;-67
2022/03/31 02:27:34;;;;;;;69.95;13.52;;;;;;;;;;4953358;29;20054;-66
2022/03/31 02:30:39;;;;;;;80.78;14.95;;;;;;;;;;4952229;29;20050;-66
2022/03/31 02:33:43;;;;;;;82.50;14.65;;;;;;;;;;4953250;29;20050;-65
2022/03/31 02:36:48;;;;;;;85.80;15.02;;;;;;;;;;4953170;29;20050;-66
2022/03/31 02:39:55;;;;;;;89.03;15.00;;;;;;;;;;4952317;29;20403;-65
2022/03/31 02:42:59;;;;;;;82.90;14.73;;;;;;;;;;4952619;29;20046;-66
2022/03/31 02:46:03;;;;;;;84.43;14.80;;;;;;;;;;4952450;28;20395;-66
2022/03/31 02:49:08;;;;;;;96.43;16.02;;;;;;;;;;4953020;29;20042;-65
2022/03/31 02:52:13;;;;;;;104.95;16.88;;;;;;;;;;4952977;29;20042;-65
2022/03/31 02:55:27;;;;;;;115.15;16.85;;;;;;;;;;4952811;29;20054;-65
2022/03/31 02:58:33;;;;;;;97.93;18.50;;;;;;;;;;4952762;29;20403;-65
2022/03/31 03:01:37;;;;;;;114.00;16.13;;;;;;;;;;4953263;29;20051;-65
2022/03/31 03:04:41;;;;;;;83.53;14.40;;;;;;;;;;4952696;29;20050;-66
2022/03/31 03:07:45;;;;;;;97.35;15.85;;;;;;;;;;4952678;29;20051;-66
2022/03/31 03:10:50;;;;;;;81.15;13.35;;;;;;;;;;4952753;29;20046;-64
2022/03/31 03:13:55;;;;;;;93.60;14.77;;;;;;;;;;4952899;29;20046;-64
2022/03/31 03:17:00;;;;;;;95.03;15.40;;;;;;;;;;4952814;29;20085;-65
2022/03/31 03:20:08;;;;;;;81.57;15.07;;;;;;;;;;4952757;29;20149;-65
2022/03/31 03:23:12;;;;;;;90.05;15.18;;;;;;;;;;4952694;29;20046;-65
2022/03/31 03:26:17;;;;;;;90.15;14.63;;;;;;;;;;4952668;29;20046;-65
2022/03/31 03:29:21;;;;;;;101.10;14.27;;;;;;;;;;4952810;29;20382;-65
2022/03/31 03:32:25;;;;;;;86.20;15.38;;;;;;;;;;4952774;29;20073;-65
2022/03/31 03:35:30;;;;;;;89.18;15.40;;;;;;;;;;4952834;29;20058;-65
2022/03/31 03:38:34;;;;;;;97.40;15.48;;;;;;;;;;4952378;29;20062;-65
2022/03/31 03:41:39;;;;;;;77.22;14.15;;;;;;;;;;4954480;28;20043;-66
2022/03/31 03:44:43;;;;;;;110.13;17.30;;;;;;;;;;4955170;29;20054;-66
2022/03/31 03:47:48;;;;;;;97.28;14.25;;;;;;;;;;4955937;28;20050;-66
2022/03/31 03:50:53;;;;;;;87.35;13.35;;;;;;;;;;4956017;29;20069;-66
2022/03/31 03:53:58;;;;;;;87.93;14.60;;;;;;;;;;4955957;29;20054;-66
2022/03/31 03:57:02;;;;;;;55.35;13.30;;;;;;;;;;4955846;29;20058;-66
2022/03/31 04:00:09;;;;;;;75.32;12.85;;;;;;;;;;4955859;29;20382;-66
2022/03/31 04:03:14;;;;;;;88.05;13.50;;;;;;;;;;4955644;29;20046;-65
2022/03/31 04:06:18;;;;;;;75.45;13.48;;;;;;;;;;4955409;29;20144;-67
2022/03/31 04:09:23;;;;;;;102.82;16.83;;;;;;;;;;4955643;29;20050;-67
2022/03/31 04:12:27;;;;;;;71.35;14.18;;;;;;;;;;4955753;29;20037;-65
2022/03/31 04:15:31;;;;;;;75.63;13.48;;;;;;;;;;4955595;29;20102;-66
2022/03/31 04:18:35;;;;;;;75.68;12.93;;;;;;;;;;4955120;29;20058;-65
2022/03/31 04:21:40;;;;;;;78.13;13.65;;;;;;;;;;4955269;29;20046;-66
2022/03/31 04:24:44;;;;;;;73.07;11.60;;;;;;;;;;4955432;29;20046;-67
2022/03/31 04:27:48;;;;;;;50.45;9.63;;;;;;;;;;4955375;29;20054;-66
2022/03/31 04:30:53;;;;;;;52.45;10.65;;;;;;;;;;4954978;29;20058;-65
2022/03/31 04:33:57;;;;;;;43.08;9.52;;;;;;;;;;4955172;29;20042;-65
2022/03/31 04:37:02;;;;;;;42.72;6.65;;;;;;;;;;4954822;29;20051;-65
2022/03/31 04:40:06;;;;;;;33.83;5.13;;;;;;;;;;4955029;29;20054;-65
2022/03/31 04:43:10;;;;;;;29.95;4.80;;;;;;;;;;4955052;29;20042;-66
2022/03/31 04:46:15;;;;;;;30.70;5.82;;;;;;;;;;4954924;28;20042;-66
2022/03/31 04:49:19;;;;;;;35.45;5.65;;;;;;;;;;4954943;29;20525;-66
2022/03/31 04:52:23;;;;;;;22.88;4.78;;;;;;;;;;4954519;28;20050;-66
2022/03/31 04:55:29;;;;;;;28.88;5.13;;;;;;;;;;4954804;29;20068;-66
2022/03/31 04:58:36;;;;;;;31.20;4.85;;;;;;;;;;4954415;29;20050;-67
2022/03/31 05:01:40;;;;;;;23.35;4.63;;;;;;;;;;4954580;29;20050;-65
2022/03/31 05:04:44;;;;;;;26.83;5.60;;;;;;;;;;4954758;29;20050;-66
2022/03/31 05:07:49;;;;;;;31.60;6.20;;;;;;;;;;4954475;29;20043;-66
2022/03/31 05:10:53;;;;;;;30.42;6.93;;;;;;;;;;4953663;29;20042;-66
2022/03/31 05:13:58;;;;;;;22.10;5.90;;;;;;;;;;4954350;29;20553;-65
2022/03/31 05:17:03;;;;;;;21.35;4.82;;;;;;;;;;4954595;29;20578;-66
2022/03/31 05:20:09;;;;;;;19.85;4.32;;;;;;;;;;4954398;29;20593;-66
2022/03/31 05:23:13;;;;;;;33.50;5.40;;;;;;;;;;4954062;29;20063;-66
2022/03/31 05:26:17;;;;;;;35.45;7.57;;;;;;;;;;4954652;29;20054;-66
2022/03/31 05:29:22;;;;;;;29.95;7.03;;;;;;;;;;4954123;29;20046;-67
2022/03/31 05:32:27;;;;;;;41.70;7.47;;;;;;;;;;4954062;29;20054;-68
2022/03/31 05:35:31;;;;;;;48.33;8.32;;;;;;;;;;4954401;29;20042;-67
2022/03/31 05:38:35;;;;;;;44.05;8.25;;;;;;;;;;4954164;29;20054;-68
2022/03/31 05:41:39;;;;;;;54.50;9.00;;;;;;;;;;4953895;29;20046;-68
2022/03/31 05:44:44;;;;;;;55.33;8.98;;;;;;;;;;4954339;29;20050;-68
2022/03/31 05:47:48;;;;;;;53.10;8.70;;;;;;;;;;4954327;28;20054;-67
2022/03/31 05:50:53;;;;;;;62.75;10.52;;;;;;;;;;4954072;29;20390;-67
2022/03/31 05:53:58;;;;;;;54.20;10.35;;;;;;;;;;4953795;29;20058;-66
2022/03/31 05:57:01;;;;;;;66.15;10.68;;;;;;;;;;4953750;29;20042;-65
2022/03/31 06:00:08;;;;;;;71.75;11.85;;;;;;;;;;4953995;29;20058;-66
2022/03/31 06:03:21;;;;;;;72.38;12.68;;;;;;;;;;4952986;28;20194;-66
2022/03/31 06:06:25;;;;;;;65.35;11.50;;;;;;;;;;4953338;29;20046;-68
2022/03/31 06:09:29;;;;;;;53.08;9.52;;;;;;;;;;4953515;29;20038;-68
2022/03/31 06:12:34;;;;;;;54.75;9.68;;;;;;;;;;4953293;29;20054;-67
2022/03/31 06:15:39;;;;;;;45.03;8.68;;;;;;;;;;4953387;29;20050;-70
2022/03/31 06:18:44;;;;;;;45.00;7.78;;;;;;;;;;4953795;29;20058;-69
2022/03/31 06:21:49;;;;;;;56.10;10.15;;;;;;;;;;4953505;29;20054;-69
2022/03/31 06:24:56;;;;;;;44.50;7.57;;;;;;;;;;4953573;29;20070;-68
2022/03/31 06:28:01;;;;;;;45.83;7.85;;;;;;;;;;4953569;29;20046;-68
2022/03/31 06:31:05;;;;;;;54.67;8.18;;;;;;;;;;4963799;28;20107;-68
2022/03/31 06:34:10;;;;;;;46.22;7.63;;;;;;;;;;4953765;29;20046;-68
2022/03/31 06:37:15;;;;;;;48.70;8.80;;;;;;;;;;4964828;28;20050;-73
2022/03/31 06:40:19;;;;;;;51.05;8.52;;;;;;;;;;4953539;29;20081;-70
2022/03/31 06:43:23;;;;;;;43.17;8.07;;;;;;;;;;4954172;29;20048;-84
2022/03/31 06:46:28;;;;;;;50.45;9.82;;;;;;;;;;4954642;28;20506;-72
2022/03/31 06:49:34;;;;;;;56.17;9.32;;;;;;;;;;4964216;28;20398;-70
2022/03/31 06:52:38;;;;;;;51.70;9.30;;;;;;;;;;4963736;28;20055;-71
2022/03/31 06:55:43;;;;;;;51.67;8.70;;;;;;;;;;4954810;29;20046;-69
2022/03/31 06:58:47;;;;;;;40.13;8.32;;;;;;;;;;4953122;29;20054;-71
2022/03/31 07:01:51;;;;;;;44.58;7.82;;;;;;;;;;4965770;28;20051;-72
2022/03/31 07:04:57;;;;;;;45.00;9.55;;;;;;;;;;4953447;29;20050;-71
2022/03/31 07:08:04;;;;;;;57.53;9.32;;;;;;;;;;4951610;29;20078;-69
2022/03/31 07:11:09;;;;;;;50.67;10.88;;;;;;;;;;4952537;29;20042;-65
2022/03/31 07:14:14;;;;;;;47.83;8.98;;;;;;;;;;4952497;28;20046;-68
2022/03/31 07:17:19;;;;;;;39.88;8.73;;;;;;;;;;4957294;29;20047;-70
2022/03/31 07:20:23;;;;;;;33.17;7.60;;;;;;;;;;4955170;29;20046;-66
2022/03/31 07:23:27;;;;;;;42.97;8.00;;;;;;;;;;4955769;29;20150;-66
2022/03/31 07:26:32;;;;;;;35.85;6.90;;;;;;;;;;4956225;29;20058;-66
2022/03/31 07:29:37;;;;;;;36.55;7.93;;;;;;;;;;4956488;29;20046;-67
2022/03/31 07:32:52;;;;;;;33.80;8.20;;;;;;;;;;4956491;29;20054;-65
2022/03/31 07:35:58;;;;;;;36.63;8.13;;;;;;;;;;4956336;29;20054;-66
2022/03/31 07:39:03;;;;;;;38.03;8.18;;;;;;;;;;4955841;29;20062;-65
2022/03/31 07:42:07;;;;;;;35.95;7.63;;;;;;;;;;4956173;29;20050;-65
2022/03/31 07:45:12;;;;;;;39.83;8.05;;;;;;;;;;4966039;28;20054;-65
2022/03/31 07:48:18;;;;;;;51.15;9.27;;;;;;;;;;4955817;28;20054;-66
2022/03/31 07:51:22;;;;;;;41.67;8.98;;;;;;;;;;4955947;29;20054;-66
2022/03/31 07:54:27;;;;;;;39.67;8.82;;;;;;;;;;4955546;29;20050;-65
2022/03/31 07:57:38;;;;;;;44.42;10.38;;;;;;;;;;4955858;29;20055;-66
2022/03/31 08:00:42;;;;;;;45.10;10.02;;;;;;;;;;4954799;28;20058;-68
2022/03/31 08:03:46;;;;;;;55.88;9.65;;;;;;;;;;4955595;29;20042;-67
2022/03/31 08:06:51;;;;;;;44.55;9.73;;;;;;;;;;4966039;28;20054;-66
2022/03/31 08:09:55;;;;;;;46.10;10.05;;;;;;;;;;4955433;29;20474;-67
2022/03/31 08:12:59;;;;;;;45.03;10.40;;;;;;;;;;4955163;29;20054;-66
2022/03/31 08:16:04;;;;;;;54.20;12.48;;;;;;;;;;4955972;29;20046;-68
2022/03/31 08:19:09;;;;;;;59.28;11.52;;;;;;;;;;4966111;28;20058;-71
2022/03/31 08:22:16;;;;;;;59.47;11.00;;;;;;;;;;4955733;29;20050;-70
2022/03/31 08:25:21;;;;;;;65.90;12.02;;;;;;;;;;4955971;29;20390;-73
2022/03/31 08:28:29;;;;;;;45.65;10.95;;;;;;;;;;4965421;28;20050;-70
2022/03/31 08:31:34;;;;;;;47.78;10.00;;;;;;;;;;4954667;29;20058;-68
2022/03/31 08:34:38;;;;;;;66.70;10.98;;;;;;;;;;4955218;29;20042;-68
2022/03/31 08:37:42;;;;;;;45.03;10.15;;;;;;;;;;4955317;29;20078;-67
2022/03/31 08:40:47;;;;;;;60.05;10.95;;;;;;;;;;4956025;29;20050;-69
2022/03/31 08:43:52;;;;;;;53.00;9.73;;;;;;;;;;4956985;29;20050;-74
2022/03/31 08:46:56;;;;;;;52.60;11.35;;;;;;;;;;4957197;29;20179;-71
2022/03/31 08:50:01;;;;;;;51.80;9.65;;;;;;;;;;4955474;29;20047;-69
2022/03/31 08:53:06;;;;;;;50.08;9.98;;;;;;;;;;4954886;29;20051;-69
2022/03/31 08:56:11;;;;;;;47.97;10.02;;;;;;;;;;4954791;29;20038;-72
2022/03/31 08:59:15;;;;;;;51.58;9.10;;;;;;;;;;4953880;29;20070;-70
2022/03/31 09:02:26;;;;;;;43.75;9.18;;;;;;;;;;4955246;29;20046;-71
2022/03/31 09:05:38;;;;;;;38.88;8.65;;;;;;;;;;4965708;28;20410;-72
2022/03/31 09:08:42;;;;;;;44.28;8.95;;;;;;;;;;4966036;28;20497;-70
2022/03/31 09:11:50;;;;;;;38.55;9.32;;;;;;;;;;4955655;29;20042;-70
2022/03/31 09:14:54;;;;;;;35.92;8.93;;;;;;;;;;4955174;29;20046;-70
2022/03/31 09:17:59;;;;;;;42.78;8.75;;;;;;;;;;4952057;29;20042;-67
2022/03/31 09:21:05;;;;;;;45.53;7.43;;;;;;;;;;4952953;29;20058;-73
2022/03/31 09:24:15;;;;;;;32.28;7.47;;;;;;;;;;4953727;29;20038;-70
2022/03/31 09:27:26;;;;;;;37.60;7.45;;;;;;;;;;4953708;29;20154;-68
2022/03/31 09:30:31;;;;;;;;;;;;;;;;;;4954351;29;20513;-69
2022/03/31 09:33:39;;;;;;;29.33;6.30;;;;;;;;;;4953868;29;19921;-69
2022/03/31 09:36:44;;;;;;;31.80;7.15;;;;;;;;;;4954336;29;20295;-72
2022/03/31 09:39:55;;;;;;;30.67;9.25;;;;;;;;;;4953752;29;20391;-74
2022/03/31 09:43:00;;;;;;;31.17;7.83;;;;;;;;;;4953327;29;20199;-70
2022/03/31 09:46:05;;;;;;;42.92;7.70;;;;;;;;;;4954144;29;20285;-71
2022/03/31 09:49:14;;;;;;;25.15;7.00;;;;;;;;;;4963535;28;20050;-70
2022/03/31 09:52:19;;;;;;;23.58;6.30;;;;;;;;;;4954271;29;20119;-74
2022/03/31 09:55:24;;;;;;;28.27;6.28;;;;;;;;;;4952831;29;20074;-70
2022/03/31 09:58:28;;;;;;;23.38;5.72;;;;;;;;;;4952320;29;20062;-70
2022/03/31 10:01:33;;;;;;;28.23;7.32;;;;;;;;;;4953360;29;20050;-69
2022/03/31 10:04:39;;;;;;;25.83;6.80;;;;;;;;;;4952437;29;20399;-68
2022/03/31 10:07:45;;;;;;;29.55;7.53;;;;;;;;;;4953215;29;20074;-69
2022/03/31 10:10:50;;;;;;;31.85;6.85;;;;;;;;;;4953570;29;20046;-68
2022/03/31 10:14:03;;;;;;;30.88;7.28;;;;;;;;;;4953510;29;20042;-71
2022/03/31 10:17:08;;;;;;;33.50;7.18;;;;;;;;;;4953212;29;20046;-69
2022/03/31 10:20:14;;;;;;;42.42;9.50;;;;;;;;;;4953510;28;20085;-69
2022/03/31 10:26:42;;;;;;;32.40;9.90;;;;;;;;;;4953167;29;20054;-68
2022/03/31 10:29:46;;;;;;;37.40;9.30;;;;;;;;;;4952327;29;20039;-69
2022/03/31 10:32:57;;;;;;;31.90;8.48;;;;;;;;;;4952740;29;20050;-70
2022/03/31 10:36:13;;;;;;;48.85;9.73;;;;;;;;;;4952307;29;20411;-65
2022/03/31 10:39:19;;;;;;;37.83;8.57;;;;;;;;;;4952514;29;20059;-67
2022/03/31 10:42:23;;;;;;;34.35;7.97;;;;;;;;;;4962995;28;20505;-69
2022/03/31 10:45:58;;;;;;;26.23;7.32;;;;;;;;;;4953199;29;20409;-66
2022/03/31 10:49:07;;;;;;;40.78;9.23;;;;;;;;;;4952929;28;20390;-66
2022/03/31 10:52:14;;;;;;;39.95;10.45;;;;;;;;;;4956327;29;20050;-67
2022/03/31 10:55:19;;;;;;;44.03;10.43;;;;;;;;;;4954909;29;20038;-68
2022/03/31 10:58:30;;;;;;;37.20;8.63;;;;;;;;;;4955629;29;20050;-68
2022/03/31 11:01:35;;;;;;;30.10;10.30;;;;;;;;;;4956748;29;20054;-69
2022/03/31 11:04:47;;;;;;;37.17;9.20;;;;;;;;;;4955680;29;20046;-68
2022/03/31 11:07:51;;;;;;;;;;;;;;;;;;4956790;29;20042;-68
2022/03/31 11:10:55;;;;;;;39.10;9.63;;;;;;;;;;4956484;29;19917;-68
2022/03/31 11:13:59;;;;;;;30.08;7.78;;;;;;;;;;4956617;29;20050;-68
2022/03/31 11:17:04;;;;;;;32.47;8.57;;;;;;;;;;4956718;29;20050;-69
2022/03/31 11:20:16;;;;;;;61.22;17.08;;;;;;;;;;4955788;29;20124;-69
2022/03/31 11:23:20;;;;;;;41.28;14.27;;;;;;;;;;4956019;29;20054;-68
2022/03/31 11:26:26;;;;;;;44.78;14.60;;;;;;;;;;4956118;29;20046;-68
2022/03/31 11:29:31;;;;;;;42.28;14.68;;;;;;;;;;4956412;29;20501;-68
2022/03/31 11:32:36;;;;;;;33.90;11.60;;;;;;;;;;4966685;28;20054;-68
2022/03/31 11:35:41;;;;;;;41.97;13.07;;;;;;;;;;4954924;29;20054;-67
2022/03/31 11:38:58;;;;;;;37.10;12.30;;;;;;;;;;4955774;29;20058;-68
2022/03/31 11:42:08;;;;;;;37.88;11.90;;;;;;;;;;4955124;29;20058;-68
2022/03/31 11:45:23;;;;;;;32.78;9.55;;;;;;;;;;4955708;29;20042;-68
2022/03/31 11:48:35;;;;;;;29.60;10.73;;;;;;;;;;4966281;28;20046;-69
2022/03/31 11:51:39;;;;;;;32.15;8.48;;;;;;;;;;4966166;28;20046;-69
2022/03/31 11:54:43;;;;;;;30.83;7.82;;;;;;;;;;4955668;29;20050;-68
2022/03/31 11:57:55;;;;;;;34.13;6.50;;;;;;;;;;4955733;29;20207;-67
2022/03/31 12:00:59;;;;;;;24.08;6.45;;;;;;;;;;4954826;28;20058;-69
2022/03/31 12:04:06;;;;;;;27.70;5.93;;;;;;;;;;4955658;29;20046;-69
2022/03/31 12:07:14;;;;;;;28.67;5.60;;;;;;;;;;4965636;28;20050;-68
2022/03/31 12:10:19;;;;;;;25.45;5.90;;;;;;;;;;4956052;29;20051;-68
2022/03/31 12:13:25;;;;;;;24.23;5.53;;;;;;;;;;4955699;29;20059;-68
2022/03/31 12:16:29;;;;;;;19.77;4.90;;;;;;;;;;4956122;29;20051;-68
2022/03/31 12:19:41;;;;;;;34.25;5.85;;;;;;;;;;4955428;29;20058;-69
2022/03/31 12:22:45;;;;;;;28.17;5.95;;;;;;;;;;4955089;29;20066;-66
2022/03/31 12:25:50;;;;;;;29.45;6.65;;;;;;;;;;4954778;29;20046;-66
2022/03/31 12:28:54;;;;;;;21.23;5.38;;;;;;;;;;4954989;29;20046;-66
2022/03/31 12:32:01;;;;;;;25.80;5.95;;;;;;;;;;4954980;29;20074;-66
2022/03/31 12:35:06;;;;;;;32.00;6.57;;;;;;;;;;4954033;29;20054;-65
2022/03/31 12:38:10;;;;;;;34.67;6.18;;;;;;;;;;4954931;29;20062;-65
2022/03/31 12:41:16;;;;;;;25.52;6.43;;;;;;;;;;4955251;29;20043;-66
2022/03/31 12:44:23;;;;;;;31.85;7.47;;;;;;;;;;4954817;29;20105;-65
2022/03/31 12:47:29;;;;;;;35.97;7.03;;;;;;;;;;4955101;28;20066;-66
2022/03/31 12:50:33;;;;;;;37.00;7.13;;;;;;;;;;4965056;28;20050;-66
2022/03/31 12:53:42;;;;;;;28.50;6.25;;;;;;;;;;4954795;29;20042;-66
2022/03/31 12:56:47;;;;;;;26.40;7.25;;;;;;;;;;4954987;29;20046;-65
2022/03/31 12:59:59;;;;;;;32.22;6.82;;;;;;;;;;4954659;29;20407;-68
2022/03/31 13:03:03;;;;;;;35.17;8.15;;;;;;;;;;4955033;29;20038;-67
2022/03/31 13:06:10;;;;;;;37.30;7.55;;;;;;;;;;4963676;28;20375;-67
2022/03/31 13:09:14;;;;;;;28.58;6.18;;;;;;;;;;4952926;29;20501;-67
2022/03/31 13:12:18;;;;;;;36.67;7.03;;;;;;;;;;4952531;28;20050;-69
2022/03/31 13:15:23;;;;;;;34.17;6.30;;;;;;;;;;4953172;29;20043;-63
2022/03/31 13:18:28;;;;;;;29.60;5.68;;;;;;;;;;4952511;29;20058;-66
2022/03/31 13:21:32;;;;;;;33.33;6.45;;;;;;;;;;4952833;29;20055;-66
2022/03/31 13:24:37;;;;;;;31.13;6.22;;;;;;;;;;4952668;29;20042;-64
2022/03/31 13:27:42;;;;;;;33.67;7.32;;;;;;;;;;4952177;29;20054;-63
2022/03/31 13:30:46;;;;;;;31.70;6.75;;;;;;;;;;4953037;29;20053;-64
2022/03/31 13:33:51;;;;;;;36.78;6.88;;;;;;;;;;4952882;29;20046;-64
2022/03/31 13:36:59;;;;;;;35.67;6.82;;;;;;;;;;4954405;29;20482;-64
2022/03/31 13:40:07;;;;;;;28.73;6.00;;;;;;;;;;4953487;29;20073;-64
2022/03/31 13:43:11;;;;;;;43.05;7.20;;;;;;;;;;4953600;29;20062;-63
2022/03/31 13:46:16;;;;;;;40.25;7.38;;;;;;;;;;4953943;29;20546;-64
2022/03/31 13:49:21;;;;;;;43.40;6.90;;;;;;;;;;4953533;29;20051;-66
2022/03/31 13:52:26;;;;;;;33.85;6.88;;;;;;;;;;4953738;29;20058;-66
2022/03/31 13:55:30;;;;;;;38.22;7.28;;;;;;;;;;4951786;29;20046;-65
2022/03/31 14:01:58;;;;;;;34.83;7.07;;;;;;;;;;4953378;29;20514;-65
2022/03/31 14:05:03;;;;;;;39.17;8.75;;;;;;;;;;4952571;29;20064;-67
2022/03/31 14:08:08;;;;;;;39.25;7.55;;;;;;;;;;4952979;29;20498;-67
2022/03/31 14:11:12;;;;;;;33.38;7.20;;;;;;;;;;4953446;29;20054;-70
2022/03/31 14:14:18;;;;;;;42.95;7.57;;;;;;;;;;4953276;29;20051;-68
2022/03/31 14:17:22;;;;;;;40.13;9.25;;;;;;;;;;4963363;28;20054;-68
2022/03/31 14:20:26;;;;;;;50.75;8.65;;;;;;;;;;4953206;29;20133;-70
2022/03/31 14:23:31;;;;;;;39.33;7.90;;;;;;;;;;4953027;29;20054;-69
2022/03/31 14:26:36;;;;;;;35.08;7.82;;;;;;;;;;4952679;29;20050;-69
2022/03/31 14:29:44;;;;;;;36.28;7.22;;;;;;;;;;4953103;29;20053;-69
2022/03/31 14:33:07;;;;;;;39.42;6.15;;;;;;;;;;4952414;29;20061;-68
2022/03/31 14:36:12;;;;;;;52.53;8.48;;;;;;;;;;4953087;29;20042;-67
2022/03/31 14:39:18;;;;;;;41.15;7.20;;;;;;;;;;4952905;29;20058;-67
2022/03/31 14:42:22;;;;;;;35.58;7.40;;;;;;;;;;4952620;29;20218;-68
2022/03/31 14:45:27;;;;;;;51.67;8.75;;;;;;;;;;4952759;29;20054;-69
2022/03/31 14:48:31;;;;;;;52.65;9.13;;;;;;;;;;4952125;28;20058;-70
2022/03/31 14:51:40;;;;;;;38.28;7.30;;;;;;;;;;4952962;29;20120;-68
2022/03/31 14:54:44;;;;;;;41.78;7.43;;;;;;;;;;4961526;28;20565;-71
2022/03/31 14:57:48;;;;;;;33.83;7.47;;;;;;;;;;4951806;29;20042;-70
2022/03/31 15:00:53;;;;;;;32.35;7.40;;;;;;;;;;4963083;28;20046;-69
2022/03/31 15:03:57;;;;;;;43.55;7.60;;;;;;;;;;4952990;29;20390;-66
2022/03/31 15:07:02;;;;;;;39.15;7.63;;;;;;;;;;4952897;29;20497;-70
2022/03/31 15:16:55;;;;;;;45.55;8.65;;;;;;;;;;4952035;29;20382;-69
2022/03/31 15:19:59;;;;;;;45.42;7.35;;;;;;;;;;4952417;29;20074;-69
2022/03/31 15:23:03;;;;;;;31.52;6.47;;;;;;;;;;4962693;28;20050;-67
2022/03/31 15:26:08;;;;;;;36.80;7.25;;;;;;;;;;4952482;29;20066;-70
2022/03/31 15:29:13;;;;;;;38.03;6.85;;;;;;;;;;4952629;29;20042;-68
2022/03/31 15:32:18;;;;;;;38.17;7.30;;;;;;;;;;4951495;29;20050;-69
2022/03/31 15:35:22;;;;;;;45.55;9.88;;;;;;;;;;4952659;28;20046;-70
2022/03/31 15:38:26;;;;;;;46.17;8.35;;;;;;;;;;4955850;29;20070;-69
2022/03/31 15:41:31;;;;;;;36.72;8.02;;;;;;;;;;4956010;29;20058;-67
2022/03/31 15:44:36;;;;;;;42.92;7.70;;;;;;;;;;4955766;29;20042;-68
2022/03/31 15:47:41;;;;;;;39.83;6.40;;;;;;;;;;4955646;28;20050;-68
2022/03/31 15:50:45;;;;;;;43.67;9.45;;;;;;;;;;4954451;29;20062;-68
2022/03/31 15:53:50;;;;;;;44.20;8.35;;;;;;;;;;4954938;29;20497;-68
2022/03/31 15:56:54;;;;;;;33.10;6.90;;;;;;;;;;4955155;29;20057;-70
2022/03/31 15:59:58;;;;;;;30.98;6.15;;;;;;;;;;4954253;29;20058;-74
2022/03/31 16:03:04;;;;;;;39.67;6.20;;;;;;;;;;4955491;29;20391;-70
2022/03/31 16:06:08;;;;;;;31.33;5.28;;;;;;;;;;4955546;29;20054;-67
2022/03/31 16:09:12;;;;;;;28.92;5.97;;;;;;;;;;4964084;28;20530;-69
2022/03/31 16:12:17;;;;;;;35.20;6.43;;;;;;;;;;4963722;28;20054;-66
2022/03/31 16:15:24;;;;;;;30.58;5.45;;;;;;;;;;4954432;29;20038;-69
2022/03/31 16:18:28;;;;;;;37.20;6.97;;;;;;;;;;4953181;29;20046;-67
2022/03/31 16:21:33;;;;;;;27.88;5.50;;;;;;;;;;4953643;29;20062;-69
2022/03/31 16:24:40;;;;;;;27.38;5.22;;;;;;;;;;4954257;29;20046;-73
2022/03/31 16:27:44;;;;;;;24.77;4.82;;;;;;;;;;4953691;29;20509;-71
2022/03/31 16:30:50;;;;;;;34.50;6.55;;;;;;;;;;4953902;29;20070;-70
2022/03/31 16:33:55;;;;;;;31.48;6.05;;;;;;;;;;4955056;29;20054;-70
2022/03/31 16:36:59;;;;;;;33.30;6.60;;;;;;;;;;4954773;29;20050;-69
2022/03/31 16:40:05;;;;;;;33.78;6.38;;;;;;;;;;4954572;29;20066;-69
2022/03/31 16:43:10;;;;;;;34.20;6.82;;;;;;;;;;4953536;29;20046;-70
2022/03/31 16:46:16;;;;;;;30.65;7.00;;;;;;;;;;4955398;29;20054;-71
2022/03/31 16:49:22;;;;;;;34.50;6.45;;;;;;;;;;4963155;28;20050;-67
2022/03/31 16:52:27;;;;;;;32.60;7.43;;;;;;;;;;4952172;29;20062;-71
2022/03/31 16:55:31;;;;;;;33.42;6.80;;;;;;;;;;4954348;29;20501;-67
2022/03/31 16:58:36;;;;;;;33.80;6.43;;;;;;;;;;4953959;29;20518;-69
2022/03/31 17:01:41;;;;;;;32.72;5.80;;;;;;;;;;4954759;29;20438;-73
2022/03/31 17:04:45;;;;;;;35.08;6.70;;;;;;;;;;4964671;28;20067;-68
2022/03/31 17:07:53;;;;;;;23.38;5.32;;;;;;;;;;4964669;28;20046;-68
2022/03/31 17:10:57;;;;;;;31.38;4.90;;;;;;;;;;4953937;29;20054;-65
2022/03/31 17:14:01;;;;;;;24.70;5.65;;;;;;;;;;4951291;29;20038;-65
2022/03/31 17:17:06;;;;;;;33.28;6.45;;;;;;;;;;4952244;29;20561;-66
2022/03/31 17:20:11;;;;;;;29.05;7.10;;;;;;;;;;4952165;29;20450;-66
2022/03/31 17:23:16;;;;;;;35.47;6.45;;;;;;;;;;4952628;29;20628;-66
2022/03/31 17:26:21;;;;;;;22.65;5.10;;;;;;;;;;4952306;29;20054;-67
2022/03/31 17:29:25;;;;;;;38.45;6.38;;;;;;;;;;4953452;29;20140;-68
2022/03/31 17:32:30;;;;;;;37.15;7.70;;;;;;;;;;4963916;28;20067;-69
2022/03/31 17:35:35;;;;;;;31.23;7.45;;;;;;;;;;4953372;29;20509;-67
2022/03/31 17:38:40;;;;;;;27.65;7.35;;;;;;;;;;4952936;29;20390;-67
2022/03/31 17:41:44;;;;;;;29.23;6.40;;;;;;;;;;4963746;28;20054;-68
2022/03/31 17:44:49;;;;;;;24.95;5.57;;;;;;;;;;4963514;28;20050;-67
2022/03/31 17:47:55;;;;;;;25.17;5.05;;;;;;;;;;4953374;28;20403;-67
2022/03/31 17:50:59;;;;;;;26.58;4.32;;;;;;;;;;4953492;29;20038;-67
2022/03/31 17:54:04;;;;;;;23.38;5.03;;;;;;;;;;4953277;29;20050;-68
2022/03/31 17:57:08;;;;;;;28.88;4.90;;;;;;;;;;4963565;28;20042;-67
2022/03/31 18:00:14;;;;;;;31.02;6.05;;;;;;;;;;4962486;28;20058;-67
2022/03/31 18:03:18;;;;;;;34.33;7.38;;;;;;;;;;4953391;29;20046;-68
2022/03/31 18:06:22;;;;;;;24.50;5.10;;;;;;;;;;4952997;29;20050;-68
2022/03/31 18:09:27;;;;;;;26.65;6.20;;;;;;;;;;4952916;29;20513;-68
2022/03/31 18:12:31;;;;;;;22.42;4.65;;;;;;;;;;4953030;29;20657;-68
2022/03/31 18:15:38;;;;;;;25.52;4.43;;;;;;;;;;4952789;29;20046;-68
2022/03/31 18:18:43;;;;;;;29.27;5.90;;;;;;;;;;4963073;28;20054;-68
2022/03/31 18:21:55;;;;;;;24.95;4.85;;;;;;;;;;4953086;29;20050;-68
2022/03/31 18:25:00;;;;;;;24.92;5.07;;;;;;;;;;4953084;29;20042;-68